createdAt,value
2023-05-14T00:00:08.348Z,12.80
2023-05-14T00:01:42.068Z,12.60
2023-05-14T00:03:14.380Z,11.30
2023-05-14T00:04:46.322Z,13.10
2023-05-14T00:06:18.002Z,12.30
2023-05-14T00:07:49.665Z,11.90
2023-05-14T00:09:21.398Z,12.80
2023-05-14T00:10:53.096Z,12.60
2023-05-14T00:12:26.331Z,12.60
2023-05-14T00:13:58.016Z,12.20
2023-05-14T00:15:30.054Z,12.60
2023-05-14T00:17:03.014Z,11.90
2023-05-14T00:18:34.886Z,11.30
2023-05-14T00:20:07.276Z,12.10
2023-05-14T00:21:39.024Z,13.30
2023-05-14T00:23:10.966Z,13.10
2023-05-14T00:24:42.656Z,13.10
2023-05-14T00:26:14.410Z,13.00
2023-05-14T00:27:47.094Z,13.30
2023-05-14T00:29:18.999Z,13.80
2023-05-14T00:30:51.922Z,13.30
2023-05-14T00:32:24.489Z,13.30
2023-05-14T00:33:56.588Z,13.00
2023-05-14T00:35:28.298Z,13.90
2023-05-14T00:36:59.998Z,14.00
2023-05-14T00:38:32.044Z,13.60
2023-05-14T00:40:04.440Z,13.20
2023-05-14T00:41:36.258Z,13.20
2023-05-14T00:43:08.413Z,13.40
2023-05-14T00:44:40.272Z,13.20
2023-05-14T00:46:12.702Z,13.00
2023-05-14T00:47:44.781Z,13.70
2023-05-14T00:49:17.680Z,13.20
2023-05-14T00:50:51.047Z,12.70
2023-05-14T00:52:22.915Z,14.20
2023-05-14T00:53:55.273Z,11.60
2023-05-14T00:55:30.774Z,13.50
2023-05-14T00:57:04.693Z,13.10
2023-05-14T00:58:36.507Z,15.00
2023-05-14T01:00:09.352Z,12.90
2023-05-14T01:01:41.235Z,12.40
2023-05-14T01:03:13.034Z,12.20
2023-05-14T01:04:44.941Z,12.70
2023-05-14T01:06:53.279Z,12.90
2023-05-14T01:08:50.006Z,12.50
2023-05-14T01:10:35.729Z,13.00
2023-05-14T01:12:29.563Z,12.80
2023-05-14T01:14:45.243Z,12.40
2023-05-14T01:16:19.956Z,10.40
2023-05-14T01:17:59.893Z,12.10
2023-05-14T01:19:45.541Z,12.70
2023-05-14T01:21:38.566Z,13.10
2023-05-14T01:23:22.921Z,11.90
2023-05-14T01:24:54.626Z,12.70
2023-05-14T01:38:46.357Z,15.20
2023-05-14T01:40:19.372Z,14.10
2023-05-14T01:41:52.703Z,12.60
2023-05-14T01:43:24.713Z,12.50
2023-05-14T01:44:56.751Z,12.60
2023-05-14T01:46:33.430Z,12.30
2023-05-14T01:48:06.622Z,13.00
2023-05-14T01:49:38.970Z,12.80
2023-05-14T01:51:10.853Z,13.10
2023-05-14T01:52:45.432Z,12.70
2023-05-14T01:54:17.527Z,13.30
2023-05-14T01:55:49.240Z,13.30
2023-05-14T01:57:21.446Z,13.20
2023-05-14T01:58:53.304Z,13.30
2023-05-14T02:00:26.178Z,13.30
2023-05-14T02:01:58.287Z,13.20
2023-05-14T02:03:30.084Z,13.80
2023-05-14T02:05:02.683Z,12.90
2023-05-14T02:06:35.345Z,13.10
2023-05-14T02:08:07.087Z,13.10
2023-05-14T02:09:40.080Z,12.40
2023-05-14T02:11:11.776Z,13.60
2023-05-14T02:12:44.023Z,13.90
2023-05-14T02:14:15.852Z,13.10
2023-05-14T02:15:47.788Z,13.60
2023-05-14T02:17:19.977Z,13.90
2023-05-14T02:18:51.752Z,13.80
2023-05-14T02:20:24.165Z,12.50
2023-05-14T02:21:56.286Z,13.20
2023-05-14T02:23:37.967Z,13.70
2023-05-14T02:25:15.904Z,14.20
2023-05-14T02:26:48.733Z,13.20
2023-05-14T02:28:20.655Z,14.50
2023-05-14T02:29:52.832Z,13.40
2023-05-14T02:31:24.615Z,13.50
2023-05-14T02:32:57.407Z,13.30
2023-05-14T02:34:29.422Z,13.40
2023-05-14T02:36:01.192Z,14.00
2023-05-14T02:37:34.788Z,13.20
2023-05-14T02:39:06.729Z,13.30
2023-05-14T02:40:38.414Z,14.50
2023-05-14T02:42:10.130Z,15.40
2023-05-14T02:43:41.817Z,14.80
2023-05-14T02:45:13.554Z,15.70
2023-05-14T02:46:45.594Z,14.00
2023-05-14T02:48:17.464Z,15.30
2023-05-14T02:49:49.225Z,14.60
2023-05-14T02:51:21.371Z,13.20
2023-05-14T02:52:53.131Z,14.00
2023-05-14T02:54:25.020Z,15.00
2023-05-14T02:55:56.774Z,15.00
2023-05-14T02:57:29.058Z,16.00
2023-05-14T02:59:00.967Z,15.00
2023-05-14T03:00:33.291Z,14.20
2023-05-14T03:02:05.729Z,14.90
2023-05-14T03:03:38.345Z,14.80
2023-05-14T03:05:10.834Z,15.20
2023-05-14T03:06:42.630Z,15.40
2023-05-14T03:08:14.416Z,15.00
2023-05-14T03:09:46.252Z,15.90
2023-05-14T03:11:18.273Z,16.70
2023-05-14T03:12:50.338Z,16.70
2023-05-14T03:14:22.098Z,15.80
2023-05-14T03:15:57.024Z,15.20
2023-05-14T03:17:28.870Z,15.10
2023-05-14T03:19:01.608Z,15.10
2023-05-14T03:20:34.349Z,14.90
2023-05-14T03:22:06.106Z,14.40
2023-05-14T03:23:37.896Z,15.10
2023-05-14T03:25:09.937Z,15.50
2023-05-14T03:26:41.654Z,15.90
2023-05-14T03:28:13.521Z,15.80
2023-05-14T03:29:45.417Z,14.80
2023-05-14T03:31:17.262Z,15.10
2023-05-14T03:32:50.135Z,13.20
2023-05-14T03:34:22.163Z,13.90
2023-05-14T03:35:53.832Z,13.90
2023-05-14T03:37:26.203Z,13.60
2023-05-14T03:38:57.892Z,14.40
2023-05-14T03:40:29.589Z,14.90
2023-05-14T03:42:01.374Z,14.10
2023-05-14T03:43:33.284Z,15.30
2023-05-14T03:45:05.934Z,13.40
2023-05-14T03:46:38.040Z,16.10
2023-05-14T03:48:09.992Z,15.70
2023-05-14T03:49:42.232Z,15.40
2023-05-14T03:51:14.926Z,14.80
2023-05-14T03:52:46.690Z,16.60
2023-05-14T03:54:18.414Z,16.00
2023-05-14T03:55:50.164Z,16.30
2023-05-14T03:57:22.046Z,16.50
2023-05-14T03:58:53.862Z,16.30
2023-05-14T04:00:25.827Z,16.80
2023-05-14T04:01:58.589Z,16.70
2023-05-14T04:03:31.120Z,16.30
2023-05-14T04:05:03.394Z,16.10
2023-05-14T04:06:35.803Z,15.80
2023-05-14T04:08:07.615Z,14.80
2023-05-14T04:09:39.537Z,15.90
2023-05-14T04:11:11.521Z,15.90
2023-05-14T04:12:43.310Z,17.00
2023-05-14T04:14:15.391Z,16.10
2023-05-14T04:15:47.988Z,16.60
2023-05-14T04:17:19.670Z,15.80
2023-05-14T04:18:53.620Z,15.30
2023-05-14T04:20:26.450Z,15.10
2023-05-14T04:21:58.533Z,16.30
2023-05-14T04:23:31.865Z,16.50
2023-05-14T04:25:03.889Z,16.40
2023-05-14T04:26:35.584Z,16.60
2023-05-14T04:28:07.310Z,16.80
2023-05-14T04:29:38.977Z,16.90
2023-05-14T04:31:10.652Z,16.90
2023-05-14T04:32:42.617Z,17.40
2023-05-14T04:34:14.533Z,16.00
2023-05-14T04:35:47.205Z,15.80
2023-05-14T04:37:18.984Z,15.70
2023-05-14T04:38:51.580Z,16.10
2023-05-14T04:40:23.445Z,16.80
2023-05-14T04:41:55.791Z,16.80
2023-05-14T04:43:27.573Z,16.80
2023-05-14T04:44:59.378Z,16.80
2023-05-14T04:46:31.315Z,16.90
2023-05-14T04:48:07.836Z,16.90
2023-05-14T04:49:39.813Z,16.00
2023-05-14T04:51:11.574Z,15.80
2023-05-14T04:52:43.453Z,16.00
2023-05-14T04:54:15.220Z,15.70
2023-05-14T04:55:47.175Z,16.30
2023-05-14T04:57:18.987Z,15.30
2023-05-14T04:58:50.717Z,16.50
2023-05-14T05:00:23.438Z,16.00
2023-05-14T05:01:55.487Z,15.90
2023-05-14T05:03:27.285Z,15.40
2023-05-14T05:04:59.109Z,15.50
2023-05-14T05:06:31.735Z,15.50
2023-05-14T05:08:03.718Z,15.40
2023-05-14T05:09:35.719Z,16.00
2023-05-14T05:11:07.797Z,15.60
2023-05-14T05:12:39.607Z,15.30
2023-05-14T05:14:11.358Z,16.20
2023-05-14T05:15:43.956Z,15.10
2023-05-14T05:17:15.802Z,14.80
2023-05-14T05:18:47.612Z,15.70
2023-05-14T05:20:19.511Z,15.10
2023-05-14T05:21:51.672Z,15.50
2023-05-14T05:23:23.506Z,14.80
2023-05-14T05:24:55.302Z,15.00
2023-05-14T05:26:27.333Z,15.40
2023-05-14T05:27:59.104Z,14.70
2023-05-14T05:29:31.005Z,14.50
2023-05-14T05:31:03.055Z,14.10
2023-05-14T05:32:35.084Z,14.80
2023-05-14T05:34:06.841Z,14.70
2023-05-14T05:35:38.682Z,14.20
2023-05-14T05:37:12.833Z,14.80
2023-05-14T05:38:44.656Z,14.20
2023-05-14T05:40:16.570Z,15.00
2023-05-14T05:41:48.327Z,13.70
2023-05-14T05:43:20.147Z,14.70
2023-05-14T05:44:51.869Z,14.70
2023-05-14T05:46:23.632Z,14.20
2023-05-14T05:47:55.863Z,13.70
2023-05-14T05:49:27.694Z,15.00
2023-05-14T05:50:59.596Z,14.90
2023-05-14T05:52:31.562Z,15.20
2023-05-14T05:54:03.608Z,14.10
2023-05-14T05:55:35.465Z,14.10
2023-05-14T05:57:07.299Z,13.80
2023-05-14T05:58:39.185Z,14.30
2023-05-14T06:00:15.277Z,14.30
2023-05-14T06:01:48.077Z,14.30
2023-05-14T06:03:19.886Z,14.20
2023-05-14T06:04:53.203Z,15.00
2023-05-14T06:06:25.071Z,14.60
2023-05-14T06:07:56.785Z,14.30
2023-05-14T06:09:28.590Z,14.70
2023-05-14T06:11:00.393Z,13.70
2023-05-14T06:12:32.575Z,14.10
2023-05-14T06:14:04.813Z,14.60
2023-05-14T06:15:36.593Z,14.10
2023-05-14T06:17:08.610Z,13.50
2023-05-14T06:18:40.307Z,13.30
2023-05-14T06:20:12.925Z,13.20
2023-05-14T06:21:44.747Z,13.70
2023-05-14T06:23:16.450Z,13.60
2023-05-14T06:24:49.107Z,13.50
2023-05-14T06:26:21.166Z,12.50
2023-05-14T06:27:52.971Z,11.70
2023-05-14T06:29:25.654Z,12.50
2023-05-14T06:30:57.496Z,12.00
2023-05-14T06:32:29.171Z,12.40
2023-05-14T06:34:00.881Z,12.60
2023-05-14T06:35:33.198Z,12.40
2023-05-14T06:37:05.552Z,11.50
2023-05-14T06:38:38.045Z,11.00
2023-05-14T06:40:10.853Z,12.10
2023-05-14T06:41:42.818Z,10.70
2023-05-14T06:43:19.036Z,11.10
2023-05-14T06:44:50.982Z,9.90
2023-05-14T06:46:23.562Z,9.10
2023-05-14T06:47:58.209Z,9.20
2023-05-14T06:49:30.108Z,8.90
2023-05-14T06:51:03.359Z,8.30
2023-05-14T06:52:35.221Z,8.70
2023-05-14T06:54:06.886Z,8.30
2023-05-14T06:55:38.644Z,8.00
2023-05-14T06:57:10.452Z,7.80
2023-05-14T06:58:42.205Z,8.30
2023-05-14T07:00:15.789Z,8.80
2023-05-14T07:01:47.603Z,8.50
2023-05-14T07:03:19.460Z,8.30
2023-05-14T07:04:51.250Z,8.00
2023-05-14T07:06:23.578Z,8.20
2023-05-14T07:07:55.785Z,7.70
2023-05-14T07:09:28.388Z,7.90
2023-05-14T07:11:00.224Z,8.10
2023-05-14T07:12:31.997Z,8.20
2023-05-14T07:14:03.801Z,7.30
2023-05-14T07:15:35.583Z,7.50
2023-05-14T07:17:07.404Z,7.80
2023-05-14T07:18:40.349Z,7.80
2023-05-14T07:20:12.971Z,7.70
2023-05-14T07:21:44.684Z,7.50
2023-05-14T07:23:17.410Z,8.20
2023-05-14T07:24:50.885Z,7.90
2023-05-14T07:26:24.673Z,8.10
2023-05-14T07:27:59.702Z,7.70
2023-05-14T07:29:31.475Z,8.10
2023-05-14T07:31:08.978Z,8.30
2023-05-14T07:32:41.050Z,7.90
2023-05-14T07:34:13.550Z,7.30
2023-05-14T07:35:45.406Z,7.30
2023-05-14T07:37:17.161Z,7.80
2023-05-14T07:38:48.997Z,7.90
2023-05-14T07:40:21.195Z,7.30
2023-05-14T07:41:54.825Z,6.60
2023-05-14T07:43:26.929Z,7.00
2023-05-14T07:44:58.761Z,6.30
2023-05-14T07:46:30.698Z,6.70
2023-05-14T07:48:02.654Z,6.00
2023-05-14T07:49:34.790Z,4.90
2023-05-14T07:51:06.605Z,6.50
2023-05-14T07:52:38.570Z,6.30
2023-05-14T07:54:11.440Z,5.40
2023-05-14T07:55:45.057Z,5.70
2023-05-14T07:57:17.384Z,5.30
2023-05-14T07:58:49.113Z,5.70
2023-05-14T08:00:21.434Z,4.90
2023-05-14T08:01:53.417Z,5.00
2023-05-14T08:03:25.602Z,4.40
2023-05-14T08:04:57.535Z,4.50
2023-05-14T08:06:29.624Z,4.50
2023-05-14T08:08:01.728Z,4.30
2023-05-14T08:09:33.523Z,4.00
2023-05-14T08:11:05.663Z,4.60
2023-05-14T08:12:37.645Z,4.00
2023-05-14T08:14:09.465Z,3.80
2023-05-14T08:15:41.273Z,3.70
2023-05-14T08:17:13.502Z,3.50
2023-05-14T08:18:45.474Z,3.70
2023-05-14T08:20:17.642Z,3.90
2023-05-14T08:21:49.441Z,3.70
2023-05-14T08:23:21.216Z,3.60
2023-05-14T08:24:53.036Z,3.80
2023-05-14T08:26:24.824Z,4.00
2023-05-14T08:27:59.682Z,3.10
2023-05-14T08:29:31.390Z,3.10
2023-05-14T08:31:03.159Z,3.40
2023-05-14T08:32:35.006Z,3.10
2023-05-14T08:34:06.877Z,3.10
2023-05-14T08:35:38.660Z,2.70
2023-05-14T08:37:10.446Z,3.10
2023-05-14T08:38:42.601Z,2.70
2023-05-14T08:40:14.466Z,3.00
2023-05-14T08:41:46.979Z,3.30
2023-05-14T08:43:26.817Z,3.10
2023-05-14T08:45:05.765Z,3.00
2023-05-14T08:46:39.468Z,2.70
2023-05-14T08:48:17.864Z,2.60
2023-05-14T08:50:04.526Z,2.60
2023-05-14T08:51:36.655Z,2.90
2023-05-14T08:53:08.451Z,2.40
2023-05-14T08:54:40.815Z,2.80
2023-05-14T08:56:14.508Z,2.40
2023-05-14T08:57:46.449Z,2.70
2023-05-14T08:59:18.153Z,2.20
2023-05-14T09:00:50.005Z,2.10
2023-05-14T09:02:29.670Z,2.40
2023-05-14T09:04:06.973Z,2.70
2023-05-14T09:05:39.550Z,2.40
2023-05-14T09:07:11.532Z,2.50
2023-05-14T09:08:43.523Z,2.70
2023-05-14T09:10:16.190Z,2.60
2023-05-14T09:11:50.360Z,2.40
2023-05-14T09:13:22.213Z,2.90
2023-05-14T09:14:54.365Z,2.80
2023-05-14T09:16:27.006Z,2.60
2023-05-14T09:17:58.910Z,2.40
2023-05-14T09:19:31.564Z,2.30
2023-05-14T09:21:03.992Z,2.30
2023-05-14T09:22:35.935Z,2.60
2023-05-14T09:24:08.245Z,1.90
2023-05-14T09:25:40.204Z,2.60
2023-05-14T09:27:21.419Z,2.20
2023-05-14T09:29:01.873Z,2.10
2023-05-14T09:30:35.000Z,2.40
2023-05-14T09:32:08.122Z,2.40
2023-05-14T09:33:39.878Z,1.90
2023-05-14T09:35:17.468Z,2.20
2023-05-14T09:36:49.679Z,2.20
2023-05-14T09:38:24.119Z,2.50
2023-05-14T09:39:55.883Z,2.40
2023-05-14T09:41:27.666Z,2.20
2023-05-14T09:43:01.824Z,2.50
2023-05-14T09:44:33.738Z,2.50
2023-05-14T09:46:05.645Z,3.20
2023-05-14T09:47:39.281Z,3.20
2023-05-14T09:49:11.301Z,3.20
2023-05-14T09:50:44.931Z,3.10
2023-05-14T09:52:19.760Z,2.50
2023-05-14T09:53:54.266Z,3.00
2023-05-14T09:55:26.129Z,2.40
2023-05-14T09:56:57.964Z,2.60
2023-05-14T09:58:29.829Z,2.60
2023-05-14T10:00:01.787Z,2.80
2023-05-14T10:01:37.960Z,3.00
2023-05-14T10:03:17.958Z,2.70
2023-05-14T10:04:54.553Z,2.90
2023-05-14T10:06:31.877Z,3.40
2023-05-14T10:08:19.864Z,3.30
2023-05-14T10:09:59.798Z,3.00
2023-05-14T10:11:36.738Z,3.70
2023-05-14T10:13:15.131Z,4.20
2023-05-14T10:14:50.342Z,3.10
2023-05-14T10:16:38.268Z,3.60
2023-05-14T10:18:16.416Z,3.80
2023-05-14T10:19:55.942Z,3.70
2023-05-14T10:21:32.219Z,3.20
2023-05-14T10:23:04.858Z,2.60
2023-05-14T10:24:39.187Z,2.40
2023-05-14T10:26:11.529Z,3.20
2023-05-14T10:27:43.988Z,3.20
2023-05-14T10:29:16.182Z,3.10
2023-05-14T10:30:49.538Z,2.60
2023-05-14T10:32:26.343Z,3.40
2023-05-14T10:33:59.789Z,3.20
2023-05-14T10:36:06.893Z,3.20
2023-05-14T10:37:38.716Z,3.50
2023-05-14T10:39:10.548Z,2.90
2023-05-14T10:40:42.803Z,2.70
2023-05-14T10:42:20.465Z,2.60
2023-05-14T10:43:52.464Z,2.80
2023-05-14T10:45:25.190Z,3.00
2023-05-14T10:46:57.106Z,2.80
2023-05-14T10:48:29.406Z,2.70
2023-05-14T10:50:05.717Z,2.40
2023-05-14T10:51:37.997Z,2.80
2023-05-14T10:53:13.929Z,2.80
2023-05-14T10:55:04.341Z,2.80
2023-05-14T10:56:37.324Z,2.50
2023-05-14T10:58:11.243Z,3.20
2023-05-14T10:59:43.377Z,2.70
2023-05-14T11:01:15.757Z,2.90
2023-05-14T11:02:47.542Z,2.40
2023-05-14T11:04:23.073Z,2.60
2023-05-14T11:05:55.706Z,2.50
2023-05-14T11:07:36.880Z,2.60
2023-05-14T11:09:09.703Z,2.20
2023-05-14T11:10:43.367Z,2.80
2023-05-14T11:12:15.259Z,2.70
2023-05-14T11:13:48.206Z,2.40
2023-05-14T11:15:22.766Z,2.50
2023-05-14T11:16:55.555Z,2.50
2023-05-14T11:18:29.005Z,2.30
2023-05-14T11:20:01.018Z,2.20
2023-05-14T11:21:33.344Z,2.90
2023-05-14T11:23:05.139Z,3.30
2023-05-14T11:24:37.094Z,2.80
2023-05-14T11:26:08.963Z,2.60
2023-05-14T11:27:44.231Z,3.20
2023-05-14T11:29:16.319Z,2.80
2023-05-14T11:30:50.295Z,3.30
2023-05-14T11:32:22.242Z,2.90
2023-05-14T11:33:54.335Z,2.80
2023-05-14T11:35:26.217Z,2.90
2023-05-14T11:36:58.004Z,2.60
2023-05-14T11:38:29.714Z,2.70
2023-05-14T11:40:02.005Z,2.60
2023-05-14T11:41:34.009Z,2.80
2023-05-14T11:43:05.958Z,2.90
2023-05-14T11:44:39.356Z,2.70
2023-05-14T11:46:18.257Z,2.80
2023-05-14T11:47:50.078Z,2.90
2023-05-14T11:49:28.875Z,3.10
2023-05-14T11:51:00.754Z,2.90
2023-05-14T11:52:40.265Z,2.50
2023-05-14T11:54:14.422Z,2.20
2023-05-14T11:55:47.643Z,2.60
2023-05-14T11:57:22.021Z,2.90
2023-05-14T11:58:58.407Z,3.10
2023-05-14T12:00:31.356Z,2.90
2023-05-14T12:02:07.803Z,2.70
2023-05-14T12:03:39.745Z,2.70
2023-05-14T12:05:13.379Z,2.50
2023-05-14T12:06:46.666Z,2.60
2023-05-14T12:08:37.897Z,3.00
2023-05-14T12:10:12.623Z,2.80
2023-05-14T12:11:46.570Z,2.60
2023-05-14T12:13:18.382Z,2.80
2023-05-14T12:14:51.004Z,3.30
2023-05-14T12:16:23.194Z,2.80
2023-05-14T12:17:55.013Z,2.40
2023-05-14T12:19:26.848Z,2.90
2023-05-14T12:21:08.387Z,2.40
2023-05-14T12:22:42.419Z,2.60
2023-05-14T12:24:18.065Z,2.80
2023-05-14T12:25:51.486Z,2.60
2023-05-14T12:27:26.319Z,2.40
2023-05-14T12:29:03.599Z,2.80
2023-05-14T12:30:38.267Z,2.70
2023-05-14T12:32:11.086Z,2.40
2023-05-14T12:33:42.931Z,2.50
2023-05-14T12:35:14.856Z,2.70
2023-05-14T12:36:46.784Z,3.40
2023-05-14T12:38:18.620Z,2.80
2023-05-14T12:39:50.685Z,2.90
2023-05-14T12:41:22.446Z,2.90
2023-05-14T12:42:56.570Z,2.70
2023-05-14T12:44:29.128Z,2.70
2023-05-14T12:46:00.938Z,2.80
2023-05-14T12:47:33.181Z,3.00
2023-05-14T12:49:06.886Z,2.50
2023-05-14T12:50:39.365Z,2.50
2023-05-14T12:53:45.776Z,2.50
2023-05-14T12:55:17.681Z,2.60
2023-05-14T12:56:49.629Z,2.60
2023-05-14T12:58:21.478Z,2.80
2023-05-14T12:59:53.437Z,2.80
2023-05-14T13:01:25.180Z,2.50
2023-05-14T13:02:57.031Z,2.50
2023-05-14T13:04:29.088Z,2.40
2023-05-14T13:06:01.467Z,2.40
2023-05-14T13:07:33.513Z,2.10
2023-05-14T13:09:08.814Z,2.70
2023-05-14T13:10:41.022Z,1.80
2023-05-14T13:12:12.842Z,2.30
2023-05-14T13:13:44.602Z,2.30
2023-05-14T13:15:16.448Z,2.00
2023-05-14T13:16:48.245Z,2.20
2023-05-14T13:18:20.199Z,2.10
2023-05-14T13:19:52.014Z,1.90
2023-05-14T13:21:23.850Z,2.30
2023-05-14T13:22:55.607Z,2.00
2023-05-14T13:24:27.536Z,2.10
2023-05-14T13:25:59.551Z,2.10
2023-05-14T13:27:31.844Z,2.00
2023-05-14T13:29:04.500Z,2.40
2023-05-14T13:30:36.394Z,2.20
2023-05-14T13:32:08.472Z,2.30
2023-05-14T13:33:45.065Z,2.10
2023-05-14T13:35:17.140Z,2.00
2023-05-14T13:36:49.926Z,2.00
2023-05-14T13:38:21.745Z,1.90
2023-05-14T13:39:53.573Z,2.00
2023-05-14T13:41:26.969Z,2.10
2023-05-14T13:42:58.647Z,2.30
2023-05-14T13:44:30.478Z,1.90
2023-05-14T13:46:06.000Z,2.20
2023-05-14T13:47:38.550Z,2.00
2023-05-14T13:49:11.884Z,2.20
2023-05-14T13:50:43.661Z,2.40
2023-05-14T13:52:15.384Z,2.30
2023-05-14T13:53:47.046Z,2.30
2023-05-14T13:55:18.869Z,2.40
2023-05-14T13:56:51.064Z,2.20
2023-05-14T13:58:27.062Z,2.30
2023-05-14T13:59:59.169Z,2.20
2023-05-14T14:01:31.742Z,2.20
2023-05-14T14:03:03.829Z,2.60
2023-05-14T14:04:35.615Z,2.30
2023-05-14T14:06:07.496Z,2.40
2023-05-14T14:07:40.706Z,2.70
2023-05-14T14:09:13.770Z,2.00
2023-05-14T14:10:45.983Z,2.60
2023-05-14T14:12:18.048Z,2.50
2023-05-14T14:13:49.862Z,2.90
2023-05-14T14:15:22.129Z,2.50
2023-05-14T14:16:54.109Z,3.10
2023-05-14T14:18:27.156Z,3.80
2023-05-14T14:19:59.061Z,2.80
2023-05-14T14:21:31.735Z,3.10
2023-05-14T14:23:03.762Z,4.20
2023-05-14T14:24:35.509Z,5.20
2023-05-14T14:26:07.305Z,3.60
2023-05-14T14:27:41.033Z,3.70
2023-05-14T14:29:12.739Z,3.30
2023-05-14T14:30:44.942Z,3.30
2023-05-14T14:32:16.697Z,3.70
2023-05-14T14:33:48.566Z,3.30
2023-05-14T14:35:20.742Z,3.20
2023-05-14T14:36:52.497Z,3.60
2023-05-14T14:38:24.852Z,3.30
2023-05-14T14:39:56.586Z,3.20
2023-05-14T14:41:28.370Z,3.50
2023-05-14T14:43:00.484Z,3.70
2023-05-14T14:44:32.263Z,3.10
2023-05-14T14:46:04.221Z,3.10
2023-05-14T14:47:36.499Z,3.80
2023-05-14T14:49:08.899Z,3.90
2023-05-14T14:50:40.761Z,4.20
2023-05-14T14:52:12.609Z,3.60
2023-05-14T14:53:44.353Z,3.70
2023-05-14T14:55:16.025Z,3.00
2023-05-14T14:56:49.351Z,3.30
2023-05-14T14:58:21.733Z,3.80
2023-05-14T14:59:53.604Z,3.80
2023-05-14T15:01:25.626Z,3.50
2023-05-14T15:02:57.985Z,3.90
2023-05-14T15:04:32.965Z,3.90
2023-05-14T15:06:04.841Z,3.60
2023-05-14T15:07:36.554Z,3.50
2023-05-14T15:09:09.131Z,3.90
2023-05-14T15:10:41.713Z,3.20
2023-05-14T15:12:14.240Z,3.70
2023-05-14T15:13:46.115Z,3.70
2023-05-14T15:15:17.984Z,3.50
2023-05-14T15:16:51.014Z,3.10
2023-05-14T15:18:23.152Z,3.50
2023-05-14T15:19:54.862Z,3.90
2023-05-14T15:21:26.750Z,3.70
2023-05-14T15:22:58.831Z,3.50
2023-05-14T15:24:30.572Z,3.50
2023-05-14T15:26:02.289Z,4.00
2023-05-14T15:27:34.012Z,3.50
2023-05-14T15:29:05.696Z,3.70
2023-05-14T15:30:37.574Z,3.40
2023-05-14T15:32:09.491Z,3.20
2023-05-14T15:33:41.754Z,3.60
2023-05-14T15:35:14.100Z,3.60
2023-05-14T15:36:46.027Z,3.10
2023-05-14T15:38:17.836Z,3.50
2023-05-14T15:39:49.532Z,3.70
2023-05-14T15:41:21.198Z,3.10
2023-05-14T15:42:53.071Z,3.60
2023-05-14T15:44:24.870Z,3.40
2023-05-14T15:45:56.697Z,3.00
2023-05-14T15:47:28.492Z,3.00
2023-05-14T15:49:00.497Z,3.90
2023-05-14T15:50:32.318Z,3.70
2023-05-14T15:52:04.540Z,3.80
2023-05-14T15:53:36.307Z,3.10
2023-05-14T15:55:08.963Z,3.50
2023-05-14T15:56:41.012Z,3.10
2023-05-14T15:58:12.927Z,3.10
2023-05-14T15:59:44.786Z,3.30
2023-05-14T16:01:16.975Z,3.70
2023-05-14T16:02:48.811Z,3.30
2023-05-14T16:04:20.681Z,3.20
2023-05-14T16:05:52.475Z,3.10
2023-05-14T16:07:24.393Z,3.40
2023-05-14T16:08:56.861Z,3.10
2023-05-14T16:10:28.620Z,3.70
2023-05-14T16:12:00.508Z,3.30
2023-05-14T16:13:32.502Z,3.70
2023-05-14T16:15:05.370Z,3.40
2023-05-14T16:16:37.275Z,3.40
2023-05-14T16:18:09.098Z,3.40
2023-05-14T16:19:41.224Z,3.70
2023-05-14T16:21:12.951Z,3.30
2023-05-14T16:22:45.080Z,3.10
2023-05-14T16:24:20.084Z,3.60
2023-05-14T16:25:51.857Z,3.70
2023-05-14T16:27:23.650Z,6.80
2023-05-14T16:28:55.564Z,3.60
2023-05-14T16:30:27.243Z,3.30
2023-05-14T16:31:58.982Z,3.90
2023-05-14T16:33:30.834Z,3.00
2023-05-14T16:35:02.850Z,3.30
2023-05-14T16:36:34.771Z,3.40
2023-05-14T16:38:06.581Z,3.80
2023-05-14T16:39:38.260Z,3.20
2023-05-14T16:41:10.593Z,3.80
2023-05-14T16:42:42.575Z,3.30
2023-05-14T16:44:14.389Z,3.50
2023-05-14T16:45:46.182Z,3.30
2023-05-14T16:47:17.942Z,3.10
2023-05-14T16:48:50.669Z,3.10
2023-05-14T16:50:22.463Z,3.40
2023-05-14T16:51:54.462Z,2.60
2023-05-14T16:53:26.619Z,2.90
2023-05-14T16:54:58.327Z,2.70
2023-05-14T16:56:32.341Z,3.00
2023-05-14T16:58:04.062Z,2.90
2023-05-14T16:59:36.181Z,3.40
2023-05-14T17:01:09.886Z,2.70
2023-05-14T17:02:41.971Z,3.00
2023-05-14T17:04:13.984Z,2.70
2023-05-14T17:05:46.233Z,2.50
2023-05-14T17:07:18.124Z,2.90
2023-05-14T17:08:49.825Z,2.90
2023-05-14T17:10:21.621Z,2.80
2023-05-14T17:11:53.407Z,2.80
2023-05-14T17:13:25.660Z,2.90
2023-05-14T17:14:57.521Z,2.70
2023-05-14T17:16:29.487Z,2.80
2023-05-14T17:18:01.425Z,2.80
2023-05-14T17:19:33.256Z,2.50
2023-05-14T17:21:05.942Z,2.90
2023-05-14T17:22:38.009Z,2.60
2023-05-14T17:24:09.881Z,2.80
2023-05-14T17:25:41.654Z,2.50
2023-05-14T17:27:14.750Z,2.50
2023-05-14T17:28:47.649Z,2.70
2023-05-14T17:30:19.394Z,3.10
2023-05-14T17:31:51.259Z,2.90
2023-05-14T17:33:23.121Z,2.50
2023-05-14T17:34:59.220Z,2.60
2023-05-14T17:36:32.356Z,2.60
2023-05-14T17:38:04.567Z,2.30
2023-05-14T17:39:36.397Z,2.30
2023-05-14T17:41:08.167Z,2.10
2023-05-14T17:42:39.970Z,2.70
2023-05-14T17:44:13.167Z,2.30
2023-05-14T17:45:54.041Z,2.70
2023-05-14T17:47:26.932Z,2.80
2023-05-14T17:48:58.798Z,2.30
2023-05-14T17:50:30.665Z,2.20
2023-05-14T17:52:02.702Z,2.60
2023-05-14T17:53:34.744Z,2.60
2023-05-14T17:55:07.415Z,3.00
2023-05-14T17:56:39.546Z,2.10
2023-05-14T17:58:13.674Z,2.30
2023-05-14T17:59:45.408Z,2.60
2023-05-14T18:01:17.207Z,2.90
2023-05-14T18:02:49.045Z,3.10
2023-05-14T18:04:20.953Z,2.90
2023-05-14T18:05:52.918Z,2.80
2023-05-14T18:07:24.792Z,2.90
2023-05-14T18:08:56.732Z,2.90
2023-05-14T18:10:29.653Z,2.80
2023-05-14T18:12:01.465Z,2.70
2023-05-14T18:13:33.297Z,2.90
2023-05-14T18:15:06.018Z,2.80
2023-05-14T18:16:37.913Z,2.80
2023-05-14T18:18:09.735Z,3.00
2023-05-14T18:19:41.540Z,2.70
2023-05-14T18:21:13.244Z,3.10
2023-05-14T18:22:45.081Z,3.10
2023-05-14T18:24:16.793Z,2.60
2023-05-14T18:25:48.545Z,2.50
2023-05-14T18:27:20.280Z,2.80
2023-05-14T18:28:52.373Z,2.80
2023-05-14T18:30:24.159Z,2.70
2023-05-14T18:31:56.698Z,2.80
2023-05-14T18:33:28.404Z,2.80
2023-05-14T18:35:00.381Z,2.60
2023-05-14T18:36:32.823Z,2.60
2023-05-14T18:38:04.716Z,2.70
2023-05-14T18:39:36.421Z,2.90
2023-05-14T18:41:08.167Z,2.80
2023-05-14T18:42:41.191Z,2.70
2023-05-14T18:44:13.498Z,2.90
2023-05-14T18:45:47.457Z,2.60
2023-05-14T18:47:19.286Z,2.10
2023-05-14T18:48:51.103Z,2.20
2023-05-14T18:50:22.874Z,1.80
2023-05-14T18:51:54.774Z,2.50
2023-05-14T18:53:27.288Z,2.00
2023-05-14T18:54:59.009Z,2.30
2023-05-14T18:56:30.917Z,1.80
2023-05-14T18:58:02.945Z,2.10
2023-05-14T18:59:34.736Z,2.10
2023-05-14T19:01:06.607Z,2.40
2023-05-14T19:02:38.464Z,2.40
2023-05-14T19:04:10.321Z,2.50
2023-05-14T19:05:42.183Z,2.50
2023-05-14T19:07:15.163Z,1.90
2023-05-14T19:08:47.001Z,2.20
2023-05-14T19:10:18.820Z,2.10
2023-05-14T19:11:50.730Z,2.00
2023-05-14T19:13:22.448Z,2.30
2023-05-14T19:14:54.156Z,2.20
2023-05-14T19:16:26.670Z,2.00
2023-05-14T19:17:58.593Z,2.00
2023-05-14T19:19:30.749Z,2.30
2023-05-14T19:21:02.822Z,2.00
2023-05-14T19:22:34.569Z,2.10
2023-05-14T19:24:06.554Z,2.10
2023-05-14T19:25:38.362Z,2.20
2023-05-14T19:27:10.359Z,2.40
2023-05-14T19:28:42.172Z,2.30
2023-05-14T19:30:14.169Z,2.20
2023-05-14T19:31:46.007Z,2.10
2023-05-14T19:33:17.888Z,2.40
2023-05-14T19:34:50.879Z,2.30
2023-05-14T19:36:23.391Z,2.10
2023-05-14T19:37:55.312Z,2.00
2023-05-14T19:39:27.303Z,2.10
2023-05-14T19:40:59.760Z,2.50
2023-05-14T19:42:31.786Z,2.10
2023-05-14T19:44:03.735Z,2.20
2023-05-14T19:45:39.188Z,2.50
2023-05-14T19:47:11.153Z,2.40
2023-05-14T19:48:42.852Z,2.60
2023-05-14T19:50:15.774Z,2.70
2023-05-14T19:51:47.539Z,2.70
2023-05-14T19:53:19.287Z,2.20
2023-05-14T19:54:51.107Z,2.60
2023-05-14T19:56:24.250Z,2.30
2023-05-14T19:57:57.929Z,2.40
2023-05-14T19:59:29.995Z,2.80
2023-05-14T20:01:01.737Z,2.70
2023-05-14T20:02:34.298Z,2.50
2023-05-14T20:04:07.447Z,2.70
2023-05-14T20:05:39.235Z,3.00
2023-05-14T20:07:12.033Z,2.80
2023-05-14T20:08:45.204Z,2.70
2023-05-14T20:10:17.010Z,2.70
2023-05-14T20:11:48.756Z,2.70
2023-05-14T20:13:23.021Z,2.40
2023-05-14T20:14:56.115Z,2.60
2023-05-14T20:16:28.456Z,2.80
2023-05-14T20:18:01.111Z,2.60
2023-05-14T20:19:33.044Z,2.70
2023-05-14T20:21:05.529Z,2.90
2023-05-14T20:22:38.392Z,2.60
2023-05-14T20:24:10.124Z,2.60
2023-05-14T20:25:43.016Z,3.20
2023-05-14T20:27:14.715Z,3.10
2023-05-14T20:28:46.608Z,3.20
2023-05-14T20:30:19.297Z,3.30
2023-05-14T20:31:51.160Z,3.40
2023-05-14T20:33:23.250Z,3.20
2023-05-14T20:34:54.986Z,3.30
2023-05-14T20:36:26.827Z,3.80
2023-05-14T20:37:58.778Z,3.50